Time;durP1;ratioP1;P1;durP2;ratioP2;P2;SDS_P1;SDS_P2;PMS_P1;PMS_P2;Temp;Humidity;BMP_temperature;BMP_pressure;BME280_temperature;BME280_humidity;BME280_pressure;Samples;Min_cycle;Max_cycle;Signal;HPM_P1;HPM_P2
2021/12/09 00:01:47;;;;;;;;;;;;;;;-0.59;100.00;92675.41;5067710;28;20082;-82
2021/12/09 00:04:16;;;;;;;;;;;;;;;-0.95;100.00;92670.56;5067626;28;19951;-82
2021/12/09 00:06:44;;;;;;;;;;;;;;;-1.23;100.00;92674.09;5066956;28;19976;-82
2021/12/09 00:09:12;;;;;;;;;;;;;;;-1.58;100.00;92675.78;5067066;28;19940;-82
2021/12/09 00:11:44;;;;;;;;;;;;;;;-1.38;100.00;92680.63;5067178;28;20594;-82
2021/12/09 00:14:12;;;;;;;;;;;;;;;-1.30;100.00;92669.81;5066842;28;19928;-82
2021/12/09 00:16:38;;;;;;;;;;;;;;;-1.28;100.00;92663.69;5066913;28;19939;-82
2021/12/09 00:19:06;;;;;;;;;;;;;;;-1.19;100.00;92653.63;5067002;28;19932;-82
2021/12/09 00:21:33;;;;;;;;;;;;;;;-1.16;100.00;92648.28;5066878;28;20426;-82
2021/12/09 00:23:59;;;;;;;;;;;;;;;-1.10;100.00;92645.94;5066783;28;20421;-82
2021/12/09 00:26:26;;;;;;;;;;;;;;;-1.13;100.00;92632.84;5066639;28;20327;-82
2021/12/09 00:28:54;;;;;;;;;;;;;;;-1.17;100.00;92632.38;5067055;28;19940;-82
2021/12/09 00:31:20;;;;;;;;;;;;;;;-1.12;100.00;92625.13;5066691;28;19931;-82
2021/12/09 00:33:47;;;;;;;;;;;;;;;-0.98;100.00;92615.41;5066386;28;20418;-82
2021/12/09 00:36:26;;;;;;;;;;;;;;;-0.84;100.00;92599.69;5067062;28;20001;-82
2021/12/09 00:38:53;;;;;;;;;;;;;;;-0.73;100.00;92610.41;5067749;28;20254;-82
2021/12/09 00:41:19;;;;;;;;;;;;;;;-0.59;100.00;92609.00;5067058;28;19924;-82
2021/12/09 00:43:46;;;;;;;;;;;;;;;-0.50;100.00;92609.81;5067063;28;19931;-83
2021/12/09 00:46:14;;;;;;;;;;;;;;;-0.43;100.00;92608.22;5067161;28;19932;-83
2021/12/09 00:48:41;;;;;;;;;;;;;;;-0.36;100.00;92603.34;5066584;28;19932;-83
2021/12/09 00:51:08;;;;;;;;;;;;;;;-0.28;100.00;92600.81;5066621;28;19967;-83
2021/12/09 00:53:35;;;;;;;;;;;;;;;-0.24;100.00;92606.34;5066229;28;19928;-83
2021/12/09 00:56:02;;;;;;;;;;;;;;;-0.19;100.00;92614.25;5066288;28;19939;-82
2021/12/09 00:58:28;;;;;;;;;;;;;;;-0.14;100.00;92614.53;5066026;28;19978;-82
2021/12/09 01:00:55;;;;;;;;;;;;;;;-0.11;100.00;92638.66;5066247;28;19933;-83
2021/12/09 01:03:23;;;;;;;;;;;;;;;-0.10;100.00;92645.31;5066203;28;19935;-83
2021/12/09 01:05:50;;;;;;;;;;;;;;;-0.07;100.00;92645.78;5065939;28;19929;-83
2021/12/09 01:08:17;;;;;;;;;;;;;;;-0.03;100.00;92631.91;5065626;28;20397;-83
2021/12/09 01:10:43;;;;;;;;;;;;;;;0.01;100.00;92618.94;5066085;28;19978;-83
2021/12/09 01:13:12;;;;;;;;;;;;;;;0.06;100.00;92621.78;5066095;28;19932;-83
2021/12/09 01:15:38;;;;;;;;;;;;;;;-0.27;100.00;92615.03;5065660;28;19939;-83
2021/12/09 01:18:06;;;;;;;;;;;;;;;-0.76;100.00;92618.28;5066161;28;19928;-83
2021/12/09 01:20:34;;;;;;;;;;;;;;;-0.93;100.00;92627.56;5065669;28;19936;-82
2021/12/09 01:23:02;;;;;;;;;;;;;;;-1.15;100.00;92633.00;5065892;28;19932;-82
2021/12/09 01:25:32;;;;;;;;;;;;;;;-1.20;100.00;92632.69;5065873;28;19933;-83
2021/12/09 01:27:58;;;;;;;;;;;;;;;-1.62;100.00;92644.31;5060943;28;19970;-83
2021/12/09 01:30:25;;;;;;;;;;;;;;;-1.50;100.00;92634.75;5064118;28;19940;-83
2021/12/09 01:32:54;;;;;;;;;;;;;;;-1.75;100.00;92632.88;5065585;28;19924;-82
2021/12/09 01:35:22;;;;;;;;;;;;;;;-1.93;100.00;92635.47;5065206;28;20021;-82
2021/12/09 01:37:54;;;;;;;;;;;;;;;-2.03;100.00;92635.56;5065009;28;19932;-82
2021/12/09 01:40:20;;;;;;;;;;;;;;;-3.02;100.00;92632.22;5064901;28;19932;-82
2021/12/09 01:42:47;;;;;;;;;;;;;;;-2.95;100.00;92630.72;5065649;28;19928;-82
2021/12/09 01:45:14;;;;;;;;;;;;;;;-3.07;100.00;92639.41;5065442;28;20371;-83
2021/12/09 01:47:40;;;;;;;;;;;;;;;-2.85;100.00;92639.00;5065566;28;19928;-82
2021/12/09 01:50:08;;;;;;;;;;;;;;;-2.65;100.00;92630.53;5065179;28;19940;-82
2021/12/09 01:52:34;;;;;;;;;;;;;;;-2.46;100.00;92617.03;5065340;28;19966;-82
2021/12/09 01:55:02;;;;;;;;;;;;;;;-2.37;100.00;92611.09;5065356;28;19929;-82
2021/12/09 01:57:29;;;;;;;;;;;;;;;-2.26;100.00;92604.25;5065283;28;20296;-83
2021/12/09 01:59:55;;;;;;;;;;;;;;;-2.17;100.00;92610.94;5064974;28;19929;-82
2021/12/09 02:02:22;;;;;;;;;;;;;;;-2.07;100.00;92606.59;5065460;28;19974;-82
2021/12/09 02:04:48;;;;;;;;;;;;;;;-2.02;100.00;92601.13;5065262;28;19932;-82
2021/12/09 02:07:15;;;;;;;;;;;;;;;-2.14;100.00;92610.63;5065562;28;19933;-82
2021/12/09 02:09:41;;;;;;;;;;;;;;;-2.31;100.00;92614.78;5065552;28;20343;-81
2021/12/09 02:12:10;;;;;;;;;;;;;;;-2.94;100.00;92617.22;5065330;28;19978;-82
2021/12/09 02:14:40;;;;;;;;;;;;;;;-3.64;100.00;92633.56;5064946;28;19933;-82
2021/12/09 02:17:07;;;;;;;;;;;;;;;-3.85;100.00;92636.28;5065301;28;19932;-82
2021/12/09 02:19:34;;;;;;;;;;;;;;;-3.83;100.00;92626.88;5065434;28;19998;-81
2021/12/09 02:22:02;;;;;;;;;;;;;;;-4.45;100.00;92633.84;5065180;28;19978;-80
2021/12/09 02:24:28;;;;;;;;;;;;;;;-4.27;100.00;92643.19;5065051;28;19939;-81
2021/12/09 02:26:55;;;;;;;;;;;;;;;-4.12;100.00;92640.28;5065608;28;19932;-82
2021/12/09 02:29:21;;;;;;;;;;;;;;;-4.10;100.00;92644.25;5064818;28;20433;-82
2021/12/09 02:31:50;;;;;;;;;;;;;;;-3.87;100.00;92630.59;5065170;28;20406;-82
2021/12/09 02:34:17;;;;;;;;;;;;;;;-3.49;100.00;92627.16;5067422;28;19981;-81
2021/12/09 02:36:44;;;;;;;;;;;;;;;-3.14;100.00;92617.31;5068891;28;19925;-81
2021/12/09 02:39:12;;;;;;;;;;;;;;;-3.29;100.00;92619.53;5069083;28;20021;-81
2021/12/09 02:41:39;;;;;;;;;;;;;;;-3.19;100.00;92622.00;5069035;28;20019;-82
2021/12/09 02:44:08;;;;;;;;;;;;;;;-3.21;100.00;92616.31;5069118;28;19925;-83
2021/12/09 02:46:37;;;;;;;;;;;;;;;-2.99;100.00;92616.84;5069061;28;19924;-83
2021/12/09 02:49:04;;;;;;;;;;;;;;;-3.18;100.00;92608.50;5069114;28;20024;-85
2021/12/09 02:51:30;;;;;;;;;;;;;;;-3.14;100.00;92604.75;5072116;28;19931;-85
2021/12/09 02:53:57;;;;;;;;;;;;;;;-2.89;100.00;92612.56;5072485;28;19935;-79
2021/12/09 02:56:25;;;;;;;;;;;;;;;-2.79;100.00;92609.97;5072695;28;19924;-80
2021/12/09 02:58:51;;;;;;;;;;;;;;;-2.71;100.00;92612.56;5072664;28;20429;-81
2021/12/09 03:01:20;;;;;;;;;;;;;;;-2.71;100.00;92616.81;5072468;28;19924;-82
2021/12/09 03:03:50;;;;;;;;;;;;;;;-2.59;100.00;92613.13;5072424;28;20346;-82
2021/12/09 03:06:17;;;;;;;;;;;;;;;-2.75;100.00;92611.28;5072804;28;19971;-79
2021/12/09 03:08:44;;;;;;;;;;;;;;;-2.70;100.00;92611.63;5072730;28;19936;-79
2021/12/09 03:11:12;;;;;;;;;;;;;;;-2.77;100.00;92610.63;5075037;28;20340;-81
2021/12/09 03:13:40;;;;;;;;;;;;;;;-2.66;100.00;92614.66;5072628;28;19924;-80
2021/12/09 03:16:08;;;;;;;;;;;;;;;-2.57;100.00;92618.81;5072473;28;19924;-80
2021/12/09 03:18:39;;;;;;;;;;;;;;;-2.48;100.00;92628.94;5072679;28;19970;-80
2021/12/09 03:21:05;;;;;;;;;;;;;;;-2.31;100.00;92624.84;5072274;28;19928;-80
2021/12/09 03:23:32;;;;;;;;;;;;;;;-2.10;100.00;92619.47;5072631;28;19928;-80
2021/12/09 03:25:59;;;;;;;;;;;;;;;-1.89;100.00;92619.13;5072107;28;20338;-80
2021/12/09 03:28:25;;;;;;;;;;;;;;;-1.66;100.00;92621.13;5072496;28;19928;-80
2021/12/09 03:30:53;;;;;;;;;;;;;;;-1.51;100.00;92615.53;5072382;28;19970;-83
2021/12/09 03:33:20;;;;;;;;;;;;;;;-1.37;100.00;92617.50;5072052;28;19924;-82
2021/12/09 03:35:46;;;;;;;;;;;;;;;-1.26;100.00;92620.66;5072220;28;20268;-81
2021/12/09 03:38:13;;;;;;;;;;;;;;;-1.22;100.00;92611.88;5071949;28;19978;-83
2021/12/09 03:40:39;;;;;;;;;;;;;;;-1.17;100.00;92606.41;5072019;28;19924;-83
2021/12/09 03:43:06;;;;;;;;;;;;;;;-1.16;100.00;92608.75;5071821;28;19936;-83
2021/12/09 03:45:32;;;;;;;;;;;;;;;-1.14;100.00;92616.94;5071792;28;19925;-83
2021/12/09 03:48:02;;;;;;;;;;;;;;;-1.10;100.00;92625.75;5071670;28;19974;-83
2021/12/09 03:50:29;;;;;;;;;;;;;;;-1.22;100.00;92629.50;5071956;28;20031;-83
2021/12/09 03:52:56;;;;;;;;;;;;;;;-1.17;100.00;92639.16;5071675;28;19928;-83
2021/12/09 03:55:22;;;;;;;;;;;;;;;-1.18;100.00;92638.34;5071778;28;20284;-84
2021/12/09 03:57:49;;;;;;;;;;;;;;;-1.54;100.00;92646.06;5071501;28;19928;-85
2021/12/09 04:00:15;;;;;;;;;;;;;;;-1.82;100.00;92639.47;5071494;28;19924;-84
2021/12/09 04:02:42;;;;;;;;;;;;;;;-1.85;100.00;92646.53;5070685;28;19928;-84
2021/12/09 04:05:10;;;;;;;;;;;;;;;-1.94;100.00;92636.41;5071567;28;19928;-84
2021/12/09 04:07:36;;;;;;;;;;;;;;;-1.81;100.00;92640.28;5071461;28;20340;-84
2021/12/09 04:10:03;;;;;;;;;;;;;;;-1.68;100.00;92648.19;5071495;28;19931;-85
2021/12/09 04:12:30;;;;;;;;;;;;;;;-1.59;100.00;92651.56;5071152;28;19925;-85
2021/12/09 04:14:57;;;;;;;;;;;;;;;-1.54;100.00;92646.88;5071277;28;20250;-85
2021/12/09 04:17:23;;;;;;;;;;;;;;;-1.49;100.00;92648.91;5071395;28;20291;-84
2021/12/09 04:19:50;;;;;;;;;;;;;;;-1.46;100.00;92650.34;5071115;28;19928;-85
2021/12/09 04:22:19;;;;;;;;;;;;;;;-1.35;100.00;92652.59;5070684;28;20349;-84
2021/12/09 04:24:46;;;;;;;;;;;;;;;-1.21;100.00;92643.69;5070891;28;19925;-84
2021/12/09 04:27:13;;;;;;;;;;;;;;;-1.14;100.00;92644.69;5071256;28;19924;-83
2021/12/09 04:29:39;;;;;;;;;;;;;;;-1.08;100.00;92641.53;5070924;28;19936;-84
2021/12/09 04:32:06;;;;;;;;;;;;;;;-1.02;100.00;92645.16;5070796;28;19925;-84
2021/12/09 04:34:33;;;;;;;;;;;;;;;-0.99;100.00;92644.06;5071046;28;19997;-83
2021/12/09 04:37:00;;;;;;;;;;;;;;;-0.99;100.00;92637.31;5070490;28;19925;-83
2021/12/09 04:39:28;;;;;;;;;;;;;;;-0.92;100.00;92656.88;5070899;28;19928;-84
2021/12/09 04:41:55;;;;;;;;;;;;;;;-0.89;100.00;92649.00;5070618;28;19928;-84
2021/12/09 04:44:21;;;;;;;;;;;;;;;-0.86;100.00;92658.78;5071147;28;19924;-83
2021/12/09 04:46:48;;;;;;;;;;;;;;;-0.85;100.00;92656.09;5070752;28;19928;-83
2021/12/09 04:49:15;;;;;;;;;;;;;;;-0.84;100.00;92657.69;5070571;28;20354;-83
2021/12/09 04:51:41;;;;;;;;;;;;;;;-0.86;100.00;92659.56;5071041;28;19929;-84
2021/12/09 04:54:13;;;;;;;;;;;;;;;-0.85;100.00;92657.81;5070659;28;19932;-84
2021/12/09 04:56:41;;;;;;;;;;;;;;;-0.88;100.00;92661.44;5070440;28;19986;-84
2021/12/09 04:59:08;;;;;;;;;;;;;;;-1.01;100.00;92661.09;5070483;28;19955;-85
2021/12/09 05:01:36;;;;;;;;;;;;;;;-1.12;100.00;92660.44;5070511;28;19929;-85
2021/12/09 05:04:02;;;;;;;;;;;;;;;-1.19;100.00;92663.69;5070436;28;19928;-83
2021/12/09 05:06:29;;;;;;;;;;;;;;;-1.12;100.00;92652.88;5070144;28;19931;-82
2021/12/09 05:08:56;;;;;;;;;;;;;;;-1.26;100.00;92649.19;5070041;28;19935;-85
2021/12/09 05:11:47;;;;;;;;;;;;;;;-1.24;100.00;92638.97;5070384;28;19924;-84
2021/12/09 05:14:16;;;;;;;;;;;;;;;-1.14;100.00;92653.97;5070139;28;19975;-83
2021/12/09 05:16:43;;;;;;;;;;;;;;;-1.08;100.00;92644.06;5070102;28;19977;-82
2021/12/09 05:19:09;;;;;;;;;;;;;;;-0.97;100.00;92654.81;5070244;28;19947;-83
2021/12/09 05:21:37;;;;;;;;;;;;;;;-0.86;100.00;92654.53;5070149;28;19925;-84
2021/12/09 05:24:04;;;;;;;;;;;;;;;-0.74;100.00;92646.69;5070044;28;19990;-84
2021/12/09 05:26:37;;;;;;;;;;;;;;;-0.59;100.00;92654.44;5069763;28;19925;-85
2021/12/09 05:29:03;;;;;;;;;;;;;;;-0.48;100.00;92660.88;5070119;28;19925;-85
2021/12/09 05:34:16;;;;;;;;;;;;;;;-0.30;100.00;92668.34;5069764;28;19939;-85
2021/12/09 05:36:42;;;;;;;;;;;;;;;-0.22;100.00;92662.50;5069921;28;19974;-85
2021/12/09 05:39:10;;;;;;;;;;;;;;;-0.16;100.00;92659.34;5069809;28;19931;-86
2021/12/09 05:41:37;;;;;;;;;;;;;;;-0.10;100.00;92651.13;5069941;28;19951;-81
2021/12/09 05:44:05;;;;;;;;;;;;;;;-0.04;100.00;92650.50;5070003;28;20300;-81
2021/12/09 05:46:35;;;;;;;;;;;;;;;-0.04;100.00;92652.25;5069705;28;19928;-81
2021/12/09 05:49:02;;;;;;;;;;;;;;;0.04;100.00;92649.72;5069779;28;19977;-86
2021/12/09 05:51:28;;;;;;;;;;;;;;;0.09;100.00;92650.03;5069475;28;19928;-82
2021/12/09 05:53:55;;;;;;;;;;;;;;;0.13;100.00;92638.66;5069812;28;19924;-84
2021/12/09 05:56:22;;;;;;;;;;;;;;;0.19;100.00;92649.84;5069909;28;19981;-84
2021/12/09 05:58:49;;;;;;;;;;;;;;;0.27;100.00;92638.94;5069872;28;20315;-82
2021/12/09 06:01:16;;;;;;;;;;;;;;;0.38;100.00;92648.72;5069917;28;19932;-84
2021/12/09 06:03:44;;;;;;;;;;;;;;;0.43;100.00;92645.72;5069777;28;19931;-84
2021/12/09 06:06:11;;;;;;;;;;;;;;;0.54;100.00;92642.03;5069550;28;19925;-83
2021/12/09 06:08:39;;;;;;;;;;;;;;;0.59;100.00;92644.88;5069574;28;20015;-82
2021/12/09 06:11:06;;;;;;;;;;;;;;;0.65;100.00;92649.28;5069907;28;20495;-83
2021/12/09 06:13:36;;;;;;;;;;;;;;;0.74;100.00;92650.03;5069946;28;19958;-84
2021/12/09 06:16:03;;;;;;;;;;;;;;;0.80;100.00;92646.84;5070255;28;19931;-83
2021/12/09 06:18:30;;;;;;;;;;;;;;;0.79;100.00;92647.81;5070162;28;19935;-85
2021/12/09 06:20:58;;;;;;;;;;;;;;;0.88;100.00;92660.44;5069950;28;19928;-84
2021/12/09 06:23:24;;;;;;;;;;;;;;;0.89;100.00;92662.78;5070076;28;19947;-84
2021/12/09 06:25:51;;;;;;;;;;;;;;;0.85;100.00;92664.09;5072173;28;19929;-85
2021/12/09 06:28:17;;;;;;;;;;;;;;;0.80;100.00;92664.56;5073597;28;19928;-85
2021/12/09 06:30:44;;;;;;;;;;;;;;;0.67;100.00;92669.34;5073592;28;19939;-84
2021/12/09 06:33:11;;;;;;;;;;;;;;;0.67;100.00;92659.22;5073914;28;19931;-84
2021/12/09 06:35:37;;;;;;;;;;;;;;;0.64;100.00;92655.28;5073980;28;19929;-85
2021/12/09 06:38:14;;;;;;;;;;;;;;;0.62;100.00;92646.28;5073643;28;20291;-87
2021/12/09 06:40:41;;;;;;;;;;;;;;;0.66;100.00;92645.78;5073558;28;20027;-86
2021/12/09 06:43:07;;;;;;;;;;;;;;;0.68;100.00;92652.44;5072880;28;19925;-87
2021/12/09 06:45:34;;;;;;;;;;;;;;;0.72;100.00;92649.44;5073143;28;19925;-86
2021/12/09 06:48:01;;;;;;;;;;;;;;;0.79;100.00;92645.28;5072707;28;20293;-86
2021/12/09 06:50:28;;;;;;;;;;;;;;;0.85;100.00;92646.38;5072871;28;19932;-86
2021/12/09 06:52:54;;;;;;;;;;;;;;;0.90;100.00;92636.56;5073017;28;19936;-85
2021/12/09 06:55:23;;;;;;;;;;;;;;;0.93;100.00;92643.03;5069562;28;20286;-86
2021/12/09 06:57:50;;;;;;;;;;;;;;;1.02;100.00;92636.97;5070841;28;19932;-85
2021/12/09 07:00:18;;;;;;;;;;;;;;;1.02;100.00;92631.91;5071409;28;19934;-85
2021/12/09 07:02:45;;;;;;;;;;;;;;;1.08;100.00;92632.22;5072753;28;19932;-85
2021/12/09 07:05:12;;;;;;;;;;;;;;;1.08;100.00;92633.00;5072497;28;19925;-86
2021/12/09 07:07:39;;;;;;;;;;;;;;;1.10;100.00;92637.91;5072171;28;19924;-86
2021/12/09 07:10:06;;;;;;;;;;;;;;;1.20;100.00;92634.19;5072527;28;19925;-85
2021/12/09 07:12:36;;;;;;;;;;;;;;;1.27;100.00;92629.28;5072314;28;19932;-85
2021/12/09 07:15:02;;;;;;;;;;;;;;;1.27;100.00;92619.16;5072490;28;20401;-85
2021/12/09 07:17:29;;;;;;;;;;;;;;;1.35;100.00;92620.03;5072510;28;20402;-85
2021/12/09 07:19:55;;;;;;;;;;;;;;;1.42;100.00;92614.16;5072448;28;19924;-85
2021/12/09 07:22:22;;;;;;;;;;;;;;;1.46;100.00;92607.81;5072295;28;19924;-85
2021/12/09 07:24:49;;;;;;;;;;;;;;;1.50;100.00;92610.78;5072080;28;19925;-86
2021/12/09 07:27:15;;;;;;;;;;;;;;;1.53;100.00;92612.19;5072312;28;19967;-87
2021/12/09 07:29:44;;;;;;;;;;;;;;;1.57;100.00;92611.66;5072247;28;20011;-85
2021/12/09 07:32:10;;;;;;;;;;;;;;;1.60;100.00;92623.19;5071865;28;19971;-84
2021/12/09 07:34:37;;;;;;;;;;;;;;;1.67;100.00;92623.31;5076918;28;19986;-85
2021/12/09 07:37:05;;;;;;;;;;;;;;;1.69;100.00;92623.94;5070494;28;19924;-85
2021/12/09 07:39:32;;;;;;;;;;;;;;;1.74;100.00;92629.28;5071710;28;19928;-85
2021/12/09 07:41:59;;;;;;;;;;;;;;;1.80;100.00;92633.66;5071922;28;19924;-85
2021/12/09 07:44:26;;;;;;;;;;;;;;;1.90;100.00;92628.34;5071723;28;19928;-85
2021/12/09 07:46:55;;;;;;;;;;;;;;;1.88;100.00;92617.59;5071735;28;19924;-85
2021/12/09 07:49:21;;;;;;;;;;;;;;;1.94;100.00;92621.22;5071484;28;19935;-85
2021/12/09 07:51:48;;;;;;;;;;;;;;;2.02;100.00;92622.88;5071516;28;20379;-86
2021/12/09 07:54:15;;;;;;;;;;;;;;;2.05;100.00;92610.66;5071796;28;19936;-87
2021/12/09 07:56:42;;;;;;;;;;;;;;;2.02;100.00;92613.53;5071576;28;19932;-86
2021/12/09 07:59:08;;;;;;;;;;;;;;;2.10;100.00;92602.53;5071824;28;19951;-86
2021/12/09 08:01:35;;;;;;;;;;;;;;;2.13;100.00;92607.28;5071544;28;19970;-88
2021/12/09 08:04:03;;;;;;;;;;;;;;;2.19;100.00;92604.06;5071469;28;20007;-87
2021/12/09 08:06:30;;;;;;;;;;;;;;;2.29;100.00;92611.41;5071287;28;20431;-86
2021/12/09 08:08:57;;;;;;;;;;;;;;;2.34;100.00;92611.66;5071183;28;19929;-85
2021/12/09 08:11:24;;;;;;;;;;;;;;;2.38;100.00;92607.81;5071133;28;19928;-85
2021/12/09 08:13:51;;;;;;;;;;;;;;;2.39;100.00;92611.94;5071488;28;19924;-85
2021/12/09 08:16:18;;;;;;;;;;;;;;;2.39;100.00;92616.19;5071232;28;19951;-85
2021/12/09 08:18:53;;;;;;;;;;;;;;;2.28;100.00;92607.28;5071213;28;19935;-84
2021/12/09 08:21:24;;;;;;;;;;;;;;;2.26;100.00;92604.13;5070708;28;20441;-84
2021/12/09 08:23:51;;;;;;;;;;;;;;;2.20;100.00;92602.28;5071281;28;19943;-84
2021/12/09 08:26:18;;;;;;;;;;;;;;;2.22;100.00;92595.31;5071053;28;20018;-86
2021/12/09 08:28:45;;;;;;;;;;;;;;;2.29;100.00;92601.25;5071132;28;20394;-86
2021/12/09 08:31:11;;;;;;;;;;;;;;;2.27;100.00;92588.75;5070652;28;20368;-85
2021/12/09 08:33:38;;;;;;;;;;;;;;;2.27;100.00;92603.19;5070865;28;20300;-85
2021/12/09 08:36:05;;;;;;;;;;;;;;;2.29;100.00;92603.00;5071045;28;19924;-85
2021/12/09 08:38:33;;;;;;;;;;;;;;;2.33;100.00;92597.41;5070912;28;19932;-86
2021/12/09 08:41:01;;;;;;;;;;;;;;;2.33;100.00;92601.69;5070507;28;20409;-86
2021/12/09 08:43:28;;;;;;;;;;;;;;;2.30;100.00;92604.59;5070665;28;20022;-86
2021/12/09 08:45:54;;;;;;;;;;;;;;;2.22;100.00;92600.38;5070814;28;19947;-87
2021/12/09 08:48:21;;;;;;;;;;;;;;;2.22;100.00;92602.91;5070131;28;19936;-86
2021/12/09 08:50:48;;;;;;;;;;;;;;;2.31;100.00;92606.16;5070338;28;19924;-86
2021/12/09 08:53:16;;;;;;;;;;;;;;;2.31;100.00;92593.50;5070314;28;20283;-86
2021/12/09 08:55:44;;;;;;;;;;;;;;;2.38;100.00;92596.88;5070297;28;20392;-85
2021/12/09 08:58:11;;;;;;;;;;;;;;;2.40;100.00;92585.63;5070545;28;19925;-84
2021/12/09 09:00:39;;;;;;;;;;;;;;;2.44;100.00;92590.34;5070076;28;19994;-84
2021/12/09 09:03:06;;;;;;;;;;;;;;;2.47;100.00;92590.78;5070291;28;19931;-84
2021/12/09 09:05:33;;;;;;;;;;;;;;;2.52;100.00;92588.50;5070242;28;20371;-85
2021/12/09 09:08:00;;;;;;;;;;;;;;;2.60;100.00;92596.97;5070005;28;20122;-84
2021/12/09 09:10:28;;;;;;;;;;;;;;;2.64;100.00;92601.50;5070376;28;19970;-84
2021/12/09 09:12:56;;;;;;;;;;;;;;;2.70;100.00;92589.88;5070309;28;19932;-84
2021/12/09 09:15:24;;;;;;;;;;;;;;;2.72;100.00;92584.66;5061579;28;19932;-84
2021/12/09 09:17:51;;;;;;;;;;;;;;;2.72;100.00;92582.13;5048568;28;19961;-84
2021/12/09 09:20:19;;;;;;;;;;;;;;;2.79;100.00;92576.13;5049109;28;19929;-84
2021/12/09 09:22:46;;;;;;;;;;;;;;;2.85;100.00;92577.19;5049896;28;20265;-84
2021/12/09 09:25:17;;;;;;;;;;;;;;;2.87;100.00;92577.00;5050198;28;20292;-85
2021/12/09 09:27:44;;;;;;;;;;;;;;;2.84;100.00;92584.97;5050115;28;20308;-84
2021/12/09 09:30:14;;;;;;;;;;;;;;;2.83;100.00;92581.66;5049163;28;21646;-83
2021/12/09 09:32:41;;;;;;;;;;;;;;;2.86;100.00;92590.66;5049815;28;19925;-84
2021/12/09 09:35:08;;;;;;;;;;;;;;;2.91;100.00;92586.63;5050070;28;19925;-84
2021/12/09 09:37:35;;;;;;;;;;;;;;;2.87;100.00;92579.56;5049734;28;20342;-85
2021/12/09 09:40:05;;;;;;;;;;;;;;;2.87;100.00;92577.00;5050006;28;19928;-85
2021/12/09 09:42:56;;;;;;;;;;;;;;;2.94;100.00;92565.97;5049763;28;19990;-85
2021/12/09 09:45:24;;;;;;;;;;;;;;;3.00;100.00;92556.84;5049518;28;19925;-85
2021/12/09 09:47:50;;;;;;;;;;;;;;;2.97;100.00;92554.69;5049501;28;19932;-85
2021/12/09 09:50:17;;;;;;;;;;;;;;;3.02;100.00;92547.28;5049561;28;20017;-86
2021/12/09 09:52:43;;;;;;;;;;;;;;;3.03;100.00;92532.88;5049244;28;19931;-85
2021/12/09 09:55:14;;;;;;;;;;;;;;;3.06;100.00;92517.31;5049280;28;20391;-85
2021/12/09 09:57:40;;;;;;;;;;;;;;;3.13;100.00;92525.75;5049089;28;19925;-86
2021/12/09 10:00:09;;;;;;;;;;;;;;;3.16;100.00;92514.47;5048913;28;20269;-86
2021/12/09 10:02:38;;;;;;;;;;;;;;;3.15;100.00;92511.13;5048590;28;19936;-86
2021/12/09 10:05:06;;;;;;;;;;;;;;;3.15;100.00;92511.13;5049322;28;19925;-86
2021/12/09 10:07:34;;;;;;;;;;;;;;;3.23;100.00;92505.13;5049450;28;19971;-87
2021/12/09 10:10:02;;;;;;;;;;;;;;;3.22;100.00;92498.50;5049540;28;19931;-86
2021/12/09 10:12:28;;;;;;;;;;;;;;;3.23;100.00;92497.53;5049351;28;20028;-88
2021/12/09 10:14:55;;;;;;;;;;;;;;;3.26;100.00;92489.56;5049528;28;19932;-87
2021/12/09 10:17:23;;;;;;;;;;;;;;;3.31;100.00;92497.41;5049538;28;19925;-88
2021/12/09 10:19:52;;;;;;;;;;;;;;;3.31;100.00;92494.88;5049280;28;19975;-88
2021/12/09 10:22:20;;;;;;;;;;;;;;;3.37;100.00;92505.28;5049701;28;19947;-88
2021/12/09 10:24:48;;;;;;;;;;;;;;;3.41;100.00;92502.19;5049902;28;19925;-88
2021/12/09 10:27:18;;;;;;;;;;;;;;;3.38;100.00;92507.59;5049351;28;20384;-88
2021/12/09 10:29:46;;;;;;;;;;;;;;;3.42;100.00;92508.81;5049111;28;20430;-88
2021/12/09 10:32:19;;;;;;;;;;;;;;;3.43;100.00;92515.47;5049052;28;19924;-90
2021/12/09 10:34:46;;;;;;;;;;;;;;;3.51;100.00;92516.31;5049495;28;19931;-90
2021/12/09 10:37:17;;;;;;;;;;;;;;;3.59;100.00;92527.13;5048976;28;19929;-89
2021/12/09 10:39:46;;;;;;;;;;;;;;;3.69;100.00;92526.00;5049284;28;19925;-90
2021/12/09 10:42:14;;;;;;;;;;;;;;;3.74;100.00;92532.13;5048952;28;20368;-91
2021/12/09 10:44:46;;;;;;;;;;;;;;;3.81;100.00;92522.00;5049229;28;19936;-90
2021/12/09 10:47:15;;;;;;;;;;;;;;;3.85;100.00;92514.81;5049288;28;20012;-90
2021/12/09 10:49:50;;;;;;;;;;;;;;;3.85;100.00;92509.72;5049695;28;19924;-89
2021/12/09 10:52:36;;;;;;;;;;;;;;;3.80;100.00;92499.34;5049597;28;20348;-90
2021/12/09 10:55:08;;;;;;;;;;;;;;;3.89;100.00;92493.13;5048837;28;20392;-88
2021/12/09 10:57:34;;;;;;;;;;;;;;;3.95;100.00;92494.94;5049232;28;20307;-88
2021/12/09 11:00:15;;;;;;;;;;;;;;;3.92;100.00;92494.50;5048827;28;20376;-88
2021/12/09 11:02:56;;;;;;;;;;;;;;;4.12;100.00;92492.88;5049168;28;19932;-86
2021/12/09 11:05:23;;;;;;;;;;;;;;;4.17;100.00;92487.22;5049188;28;19947;-86
2021/12/09 11:07:51;;;;;;;;;;;;;;;4.14;100.00;92488.41;5049135;28;19967;-86
2021/12/09 11:10:21;;;;;;;;;;;;;;;4.18;100.00;92481.19;5048941;28;19929;-86
2021/12/09 11:12:52;;;;;;;;;;;;;;;4.17;100.00;92469.41;5052619;28;20031;-85
2021/12/09 11:15:20;;;;;;;;;;;;;;;4.24;100.00;92467.72;5052540;28;19976;-86
2021/12/09 11:17:49;;;;;;;;;;;;;;;4.32;100.00;92466.78;5052269;28;19932;-85
2021/12/09 11:20:39;;;;;;;;;;;;;;;4.37;100.00;92467.00;5052700;28;20321;-86
2021/12/09 11:23:21;;;;;;;;;;;;;;;4.41;100.00;92464.84;5052365;28;19932;-86
2021/12/09 11:25:50;;;;;;;;;;;;;;;4.47;100.00;92468.38;5051890;28;20277;-86
2021/12/09 11:28:16;;;;;;;;;;;;;;;4.51;100.00;92472.91;5052190;28;19928;-85
2021/12/09 11:31:05;;;;;;;;;;;;;;;4.51;100.00;92464.47;5052169;28;19932;-85
2021/12/09 11:33:33;;;;;;;;;;;;;;;4.48;100.00;92463.09;5051982;28;19928;-85
2021/12/09 11:36:01;;;;;;;;;;;;;;;4.54;100.00;92462.34;5060174;28;20012;-85
2021/12/09 11:38:43;;;;;;;;;;;;;;;4.60;100.00;92467.63;5060484;28;19932;-85
2021/12/09 11:41:25;;;;;;;;;;;;;;;4.55;100.00;92456.25;5060307;28;19932;-85
2021/12/09 11:43:53;;;;;;;;;;;;;;;4.47;100.00;92453.09;5062219;28;19924;-85
2021/12/09 11:46:20;;;;;;;;;;;;;;;4.49;100.00;92453.72;5061120;28;19925;-85
2021/12/09 11:48:46;;;;;;;;;;;;;;;4.53;100.00;92454.88;5061126;28;19951;-85
2021/12/09 11:51:13;;;;;;;;;;;;;;;4.59;100.00;92443.97;5060153;28;19924;-85
2021/12/09 11:53:43;;;;;;;;;;;;;;;4.59;100.00;92446.53;5061828;28;19924;-85
2021/12/09 11:56:22;;;;;;;;;;;;;;;4.58;100.00;92441.63;5061256;28;19960;-85
2021/12/09 11:59:19;;;;;;;;;;;;;;;4.46;100.00;92432.00;5059706;28;20300;-85
2021/12/09 12:13:31;;;;;;;;;;;;;;;4.44;100.00;92417.91;5067643;28;19935;-84
2021/12/09 12:15:59;;;;;;;;;;;;;;;4.41;100.00;92435.09;5067908;28;19928;-84
2021/12/09 12:21:55;;;;;;;;;;;;;;;4.40;100.00;92412.44;5064318;28;19940;-84
2021/12/09 12:24:41;;;;;;;;;;;;;;;4.49;100.00;92410.50;5067062;28;20011;-85
2021/12/09 12:27:22;;;;;;;;;;;;;;;4.55;100.00;92397.00;5067602;28;19925;-85
2021/12/09 12:30:02;;;;;;;;;;;;;;;4.51;100.00;92388.97;5067593;28;20509;-85
2021/12/09 12:35:51;;;;;;;;;;;;;;;4.51;100.00;92383.88;845639;28;10019996;-84
2021/12/09 12:38:49;;;;;;;;;;;;;;;4.48;100.00;92371.53;18;589;10020991;-84
2021/12/09 12:41:18;;;;;;;;;;;;;;;4.45;100.00;92373.69;5087206;28;19927;-84
2021/12/09 12:43:53;;;;;;;;;;;;;;;4.43;100.00;92375.66;5087662;28;19981;-84
2021/12/09 12:46:40;;;;;;;;;;;;;;;4.43;100.00;92378.97;5087459;28;19997;-84
2021/12/09 12:49:15;;;;;;;;;;;;;;;4.33;100.00;92366.63;5087483;28;19955;-84
2021/12/09 12:51:52;;;;;;;;;;;;;;;4.23;100.00;92361.91;5087516;28;20035;-84
2021/12/09 12:54:28;;;;;;;;;;;;;;;4.21;100.00;92363.84;5087247;28;19955;-84
2021/12/09 12:56:57;;;;;;;;;;;;;;;4.01;100.00;92325.66;5087430;28;19931;-84
2021/12/09 12:59:29;;;;;;;;;;;;;;;4.22;100.00;92362.09;5087705;28;19963;-84
2021/12/09 13:02:19;;;;;;;;;;;;;;;4.20;100.00;92351.31;5086842;28;19940;-84
2021/12/09 13:04:59;;;;;;;;;;;;;;;4.23;100.00;92363.66;5086987;28;19930;-84
2021/12/09 13:07:36;;;;;;;;;;;;;;;4.25;100.00;92343.91;5087025;28;19931;-84
2021/12/09 13:10:26;;;;;;;;;;;;;;;4.27;100.00;92344.53;5086895;28;19924;-84
2021/12/09 13:13:07;;;;;;;;;;;;;;;4.24;100.00;92353.31;5086833;28;20036;-84